PMDY

Henderson Field Airport

Midway Atoll, , Midway Islands
PMDY 230520Z 2306/2406 11012KT P6SM SCT015 BKN040
Issued Valid From Valid To
Apr-23 @ 05:20 UTC
(4 hours ago)
Apr-23 @ 06:00 UTC
(3 hours ago)
Apr-24 @ 06:00 UTC
(in 21 hours)
Apr-23 @ 06:00 to Apr-24 @ 06:00
PMDY 230520Z 2306/2406 11012KT P6SM SCT015 BKN040
Wind Visibility Clouds
110° at 12 knots 10,000+ meters
  • Scattered at 1,500' AGL
  • Broken at 4,000' AGL
PMDY 230520Z 2306/2406 11012KT P6SM SCT015 BKN040
Issued Apr-23 @ 05:20 UTC
(4 hours ago)
Valid From Apr-23 @ 06:00 UTC
(3 hours ago)
Valid To Apr-24 @ 06:00 UTC
(in 21 hours)
Apr-23 @ 06:00 - Apr-24 @ 06:00
Wind Visibility
110° at 12 knots 10,000+ meters
Clouds
  • Scattered at 1,500' AGL
  • Broken at 4,000' AGL